sensor_id;sensor_type;location;lat;lon;timestamp;P1;durP1;ratioP1;P2;durP2;ratioP2
72427;SDS011;60419;48.880;18.036;2024-03-23T00:52:48;22.08;;;14.57;;
72427;SDS011;60419;48.880;18.036;2024-03-23T00:55:34;23.25;;;15.15;;
72427;SDS011;60419;48.880;18.036;2024-03-23T00:58:19;25.80;;;15.23;;
72427;SDS011;60419;48.880;18.036;2024-03-23T01:01:04;23.38;;;14.63;;
72427;SDS011;60419;48.880;18.036;2024-03-23T01:03:50;25.58;;;16.25;;
72427;SDS011;60419;48.880;18.036;2024-03-23T01:06:35;34.90;;;16.55;;
72427;SDS011;60419;48.880;18.036;2024-03-23T01:09:21;27.00;;;15.60;;
72427;SDS011;60419;48.880;18.036;2024-03-23T01:12:07;28.27;;;16.90;;
72427;SDS011;60419;48.880;18.036;2024-03-23T01:14:53;28.90;;;17.27;;
72427;SDS011;60419;48.880;18.036;2024-03-23T01:17:38;28.75;;;16.23;;
72427;SDS011;60419;48.880;18.036;2024-03-23T01:20:23;28.65;;;16.48;;
72427;SDS011;60419;48.880;18.036;2024-03-23T01:23:09;28.83;;;16.58;;
72427;SDS011;60419;48.880;18.036;2024-03-23T01:25:55;28.67;;;16.40;;
72427;SDS011;60419;48.880;18.036;2024-03-23T01:28:41;24.02;;;16.30;;
72427;SDS011;60419;48.880;18.036;2024-03-23T01:31:26;27.25;;;15.93;;
72427;SDS011;60419;48.880;18.036;2024-03-23T01:34:11;27.48;;;16.10;;
72427;SDS011;60419;48.880;18.036;2024-03-23T01:36:57;27.08;;;16.48;;
72427;SDS011;60419;48.880;18.036;2024-03-23T01:39:42;27.40;;;17.52;;
72427;SDS011;60419;48.880;18.036;2024-03-23T01:42:28;27.48;;;16.70;;
72427;SDS011;60419;48.880;18.036;2024-03-23T01:45:13;24.77;;;15.40;;
72427;SDS011;60419;48.880;18.036;2024-03-23T01:47:59;25.55;;;15.65;;
72427;SDS011;60419;48.880;18.036;2024-03-23T01:50:44;25.38;;;14.77;;
72427;SDS011;60419;48.880;18.036;2024-03-23T01:53:30;25.90;;;16.58;;
72427;SDS011;60419;48.880;18.036;2024-03-23T01:56:15;26.05;;;15.77;;
72427;SDS011;60419;48.880;18.036;2024-03-23T01:59:01;25.30;;;16.35;;
72427;SDS011;60419;48.880;18.036;2024-03-23T02:01:47;26.95;;;15.45;;
72427;SDS011;60419;48.880;18.036;2024-03-23T02:04:32;24.13;;;14.98;;
72427;SDS011;60419;48.880;18.036;2024-03-23T02:07:18;26.88;;;14.80;;
72427;SDS011;60419;48.880;18.036;2024-03-23T02:10:03;26.33;;;15.52;;
72427;SDS011;60419;48.880;18.036;2024-03-23T02:12:49;24.42;;;15.32;;
72427;SDS011;60419;48.880;18.036;2024-03-23T02:15:34;25.23;;;15.48;;
72427;SDS011;60419;48.880;18.036;2024-03-23T02:18:19;23.75;;;14.50;;
72427;SDS011;60419;48.880;18.036;2024-03-23T02:21:05;25.05;;;15.40;;
72427;SDS011;60419;48.880;18.036;2024-03-23T02:23:50;23.80;;;14.65;;
72427;SDS011;60419;48.880;18.036;2024-03-23T02:26:36;24.95;;;16.05;;
72427;SDS011;60419;48.880;18.036;2024-03-23T02:29:21;23.42;;;15.02;;
72427;SDS011;60419;48.880;18.036;2024-03-23T02:32:07;23.90;;;15.20;;
72427;SDS011;60419;48.880;18.036;2024-03-23T02:34:54;24.27;;;15.30;;
72427;SDS011;60419;48.880;18.036;2024-03-23T02:37:39;23.83;;;15.48;;
72427;SDS011;60419;48.880;18.036;2024-03-23T02:40:25;25.73;;;16.75;;
72427;SDS011;60419;48.880;18.036;2024-03-23T02:43:10;27.33;;;17.25;;
72427;SDS011;60419;48.880;18.036;2024-03-23T02:45:56;24.35;;;15.63;;
72427;SDS011;60419;48.880;18.036;2024-03-23T02:48:41;24.17;;;14.65;;
72427;SDS011;60419;48.880;18.036;2024-03-23T02:51:27;27.60;;;16.23;;
72427;SDS011;60419;48.880;18.036;2024-03-23T02:54:12;22.23;;;14.80;;
72427;SDS011;60419;48.880;18.036;2024-03-23T02:56:58;25.85;;;15.65;;
72427;SDS011;60419;48.880;18.036;2024-03-23T02:59:43;24.98;;;15.60;;
72427;SDS011;60419;48.880;18.036;2024-03-23T03:02:29;24.08;;;14.90;;
72427;SDS011;60419;48.880;18.036;2024-03-23T03:05:14;25.27;;;15.43;;
72427;SDS011;60419;48.880;18.036;2024-03-23T03:08:00;25.48;;;15.85;;
72427;SDS011;60419;48.880;18.036;2024-03-23T03:10:45;27.02;;;17.17;;
72427;SDS011;60419;48.880;18.036;2024-03-23T03:13:30;25.70;;;16.33;;
72427;SDS011;60419;48.880;18.036;2024-03-23T03:16:16;29.08;;;16.83;;
72427;SDS011;60419;48.880;18.036;2024-03-23T03:19:01;29.08;;;17.70;;
72427;SDS011;60419;48.880;18.036;2024-03-23T03:21:46;28.35;;;17.02;;
72427;SDS011;60419;48.880;18.036;2024-03-23T03:24:32;27.40;;;17.35;;
72427;SDS011;60419;48.880;18.036;2024-03-23T03:27:18;24.90;;;16.25;;
72427;SDS011;60419;48.880;18.036;2024-03-23T03:30:04;26.17;;;16.40;;
72427;SDS011;60419;48.880;18.036;2024-03-23T03:32:53;28.73;;;17.08;;
72427;SDS011;60419;48.880;18.036;2024-03-23T03:35:38;27.23;;;17.30;;
72427;SDS011;60419;48.880;18.036;2024-03-23T03:38:24;30.15;;;18.13;;
72427;SDS011;60419;48.880;18.036;2024-03-23T03:41:09;29.05;;;17.30;;
72427;SDS011;60419;48.880;18.036;2024-03-23T03:43:54;27.40;;;17.13;;
72427;SDS011;60419;48.880;18.036;2024-03-23T03:46:40;27.60;;;17.48;;
72427;SDS011;60419;48.880;18.036;2024-03-23T03:49:25;25.85;;;17.33;;
72427;SDS011;60419;48.880;18.036;2024-03-23T03:52:11;27.67;;;15.73;;
72427;SDS011;60419;48.880;18.036;2024-03-23T03:54:59;25.95;;;17.50;;
72427;SDS011;60419;48.880;18.036;2024-03-23T03:57:47;29.40;;;17.25;;
72427;SDS011;60419;48.880;18.036;2024-03-23T04:00:32;24.35;;;16.30;;
72427;SDS011;60419;48.880;18.036;2024-03-23T04:03:18;28.23;;;16.48;;
72427;SDS011;60419;48.880;18.036;2024-03-23T04:06:03;28.75;;;16.80;;
72427;SDS011;60419;48.880;18.036;2024-03-23T04:08:49;29.27;;;17.27;;
72427;SDS011;60419;48.880;18.036;2024-03-23T04:11:34;24.67;;;16.63;;
72427;SDS011;60419;48.880;18.036;2024-03-23T04:14:20;29.05;;;16.77;;
72427;SDS011;60419;48.880;18.036;2024-03-23T04:17:05;25.92;;;15.77;;
72427;SDS011;60419;48.880;18.036;2024-03-23T04:19:51;27.58;;;16.58;;
72427;SDS011;60419;48.880;18.036;2024-03-23T04:22:37;25.90;;;16.77;;
72427;SDS011;60419;48.880;18.036;2024-03-23T04:25:23;30.10;;;18.23;;
72427;SDS011;60419;48.880;18.036;2024-03-23T04:28:08;27.63;;;17.38;;
72427;SDS011;60419;48.880;18.036;2024-03-23T04:30:54;29.67;;;17.20;;
72427;SDS011;60419;48.880;18.036;2024-03-23T04:33:39;27.23;;;17.73;;
72427;SDS011;60419;48.880;18.036;2024-03-23T04:36:24;28.00;;;17.55;;
72427;SDS011;60419;48.880;18.036;2024-03-23T04:39:10;26.30;;;16.88;;
72427;SDS011;60419;48.880;18.036;2024-03-23T04:41:55;25.98;;;17.10;;
72427;SDS011;60419;48.880;18.036;2024-03-23T04:44:40;29.13;;;16.15;;
72427;SDS011;60419;48.880;18.036;2024-03-23T04:47:26;30.05;;;19.38;;
72427;SDS011;60419;48.880;18.036;2024-03-23T04:50:11;29.63;;;19.10;;
72427;SDS011;60419;48.880;18.036;2024-03-23T04:52:57;30.55;;;19.33;;
72427;SDS011;60419;48.880;18.036;2024-03-23T04:55:42;28.80;;;18.48;;
72427;SDS011;60419;48.880;18.036;2024-03-23T04:58:28;33.58;;;19.40;;
72427;SDS011;60419;48.880;18.036;2024-03-23T05:01:14;31.13;;;19.08;;
72427;SDS011;60419;48.880;18.036;2024-03-23T05:03:59;37.42;;;20.02;;
72427;SDS011;60419;48.880;18.036;2024-03-23T05:06:45;33.28;;;20.50;;
72427;SDS011;60419;48.880;18.036;2024-03-23T05:09:30;33.47;;;20.00;;
72427;SDS011;60419;48.880;18.036;2024-03-23T05:12:17;31.50;;;19.92;;
72427;SDS011;60419;48.880;18.036;2024-03-23T05:15:04;31.98;;;20.52;;
72427;SDS011;60419;48.880;18.036;2024-03-23T05:17:50;34.80;;;20.48;;
72427;SDS011;60419;48.880;18.036;2024-03-23T05:20:36;31.17;;;20.00;;
72427;SDS011;60419;48.880;18.036;2024-03-23T05:23:21;31.20;;;19.27;;
72427;SDS011;60419;48.880;18.036;2024-03-23T05:26:06;30.83;;;19.70;;
72427;SDS011;60419;48.880;18.036;2024-03-23T05:28:52;30.48;;;19.48;;
72427;SDS011;60419;48.880;18.036;2024-03-23T05:31:37;27.08;;;17.40;;
72427;SDS011;60419;48.880;18.036;2024-03-23T05:34:22;29.08;;;18.35;;
72427;SDS011;60419;48.880;18.036;2024-03-23T05:37:08;32.38;;;18.80;;
72427;SDS011;60419;48.880;18.036;2024-03-23T05:39:53;28.98;;;18.02;;
72427;SDS011;60419;48.880;18.036;2024-03-23T05:42:39;31.02;;;19.30;;
72427;SDS011;60419;48.880;18.036;2024-03-23T05:45:24;30.20;;;18.92;;
72427;SDS011;60419;48.880;18.036;2024-03-23T05:48:09;29.92;;;18.00;;
72427;SDS011;60419;48.880;18.036;2024-03-23T05:50:55;31.55;;;19.05;;
72427;SDS011;60419;48.880;18.036;2024-03-23T05:53:40;29.55;;;18.17;;
72427;SDS011;60419;48.880;18.036;2024-03-23T05:56:25;31.67;;;19.10;;
72427;SDS011;60419;48.880;18.036;2024-03-23T05:59:11;33.80;;;21.38;;
72427;SDS011;60419;48.880;18.036;2024-03-23T06:01:56;34.08;;;20.50;;
72427;SDS011;60419;48.880;18.036;2024-03-23T06:04:42;36.80;;;22.00;;
72427;SDS011;60419;48.880;18.036;2024-03-23T06:07:27;38.67;;;22.50;;
72427;SDS011;60419;48.880;18.036;2024-03-23T06:10:12;34.35;;;21.05;;
72427;SDS011;60419;48.880;18.036;2024-03-23T06:12:58;35.47;;;21.77;;
72427;SDS011;60419;48.880;18.036;2024-03-23T06:15:44;33.20;;;21.10;;
72427;SDS011;60419;48.880;18.036;2024-03-23T06:18:31;35.80;;;21.20;;
72427;SDS011;60419;48.880;18.036;2024-03-23T06:21:17;33.95;;;21.10;;
72427;SDS011;60419;48.880;18.036;2024-03-23T06:24:02;32.50;;;20.25;;
72427;SDS011;60419;48.880;18.036;2024-03-23T06:26:48;28.20;;;18.60;;
72427;SDS011;60419;48.880;18.036;2024-03-23T06:29:33;31.70;;;18.83;;
72427;SDS011;60419;48.880;18.036;2024-03-23T06:32:18;34.72;;;19.65;;
72427;SDS011;60419;48.880;18.036;2024-03-23T06:35:04;27.40;;;18.40;;
72427;SDS011;60419;48.880;18.036;2024-03-23T06:37:53;35.70;;;20.27;;
72427;SDS011;60419;48.880;18.036;2024-03-23T06:40:38;27.17;;;17.23;;
72427;SDS011;60419;48.880;18.036;2024-03-23T06:43:24;27.40;;;16.98;;
72427;SDS011;60419;48.880;18.036;2024-03-23T06:46:09;28.95;;;19.45;;
72427;SDS011;60419;48.880;18.036;2024-03-23T06:48:54;29.65;;;18.80;;
72427;SDS011;60419;48.880;18.036;2024-03-23T06:51:40;31.17;;;19.70;;
72427;SDS011;60419;48.880;18.036;2024-03-23T06:54:26;32.33;;;20.75;;
72427;SDS011;60419;48.880;18.036;2024-03-23T06:57:11;29.25;;;19.55;;
72427;SDS011;60419;48.880;18.036;2024-03-23T06:59:57;31.52;;;20.08;;
72427;SDS011;60419;48.880;18.036;2024-03-23T07:02:43;30.30;;;19.60;;
72427;SDS011;60419;48.880;18.036;2024-03-23T07:05:29;28.02;;;17.77;;
72427;SDS011;60419;48.880;18.036;2024-03-23T07:08:14;27.73;;;17.63;;
72427;SDS011;60419;48.880;18.036;2024-03-23T07:11:06;26.75;;;16.10;;
72427;SDS011;60419;48.880;18.036;2024-03-23T07:13:52;26.17;;;16.58;;
72427;SDS011;60419;48.880;18.036;2024-03-23T07:16:41;23.75;;;15.48;;
72427;SDS011;60419;48.880;18.036;2024-03-23T07:19:26;24.23;;;15.02;;
72427;SDS011;60419;48.880;18.036;2024-03-23T07:22:11;28.50;;;16.00;;
72427;SDS011;60419;48.880;18.036;2024-03-23T07:24:59;23.80;;;15.98;;
72427;SDS011;60419;48.880;18.036;2024-03-23T07:27:46;26.38;;;17.23;;
72427;SDS011;60419;48.880;18.036;2024-03-23T07:30:31;24.83;;;17.00;;
72427;SDS011;60419;48.880;18.036;2024-03-23T07:33:16;31.70;;;19.05;;
72427;SDS011;60419;48.880;18.036;2024-03-23T07:36:02;29.88;;;18.67;;
72427;SDS011;60419;48.880;18.036;2024-03-23T07:38:48;26.58;;;17.85;;
72427;SDS011;60419;48.880;18.036;2024-03-23T07:41:33;29.08;;;17.50;;
72427;SDS011;60419;48.880;18.036;2024-03-23T07:44:20;32.75;;;19.02;;
72427;SDS011;60419;48.880;18.036;2024-03-23T07:47:05;28.27;;;14.93;;
72427;SDS011;60419;48.880;18.036;2024-03-23T07:49:51;28.23;;;18.02;;
72427;SDS011;60419;48.880;18.036;2024-03-23T07:52:36;25.33;;;17.08;;
72427;SDS011;60419;48.880;18.036;2024-03-23T07:55:23;23.58;;;13.85;;
72427;SDS011;60419;48.880;18.036;2024-03-23T07:58:08;23.15;;;14.90;;
72427;SDS011;60419;48.880;18.036;2024-03-23T08:00:54;23.23;;;14.27;;
72427;SDS011;60419;48.880;18.036;2024-03-23T08:03:40;21.75;;;13.57;;
72427;SDS011;60419;48.880;18.036;2024-03-23T08:06:27;26.25;;;15.48;;
72427;SDS011;60419;48.880;18.036;2024-03-23T08:09:12;22.90;;;14.82;;
72427;SDS011;60419;48.880;18.036;2024-03-23T08:11:57;22.17;;;14.70;;
72427;SDS011;60419;48.880;18.036;2024-03-23T08:14:43;22.95;;;14.98;;
72427;SDS011;60419;48.880;18.036;2024-03-23T08:17:28;23.30;;;15.55;;
72427;SDS011;60419;48.880;18.036;2024-03-23T08:20:13;23.60;;;15.35;;
72427;SDS011;60419;48.880;18.036;2024-03-23T08:22:59;23.65;;;14.80;;
72427;SDS011;60419;48.880;18.036;2024-03-23T08:25:44;22.98;;;15.32;;
72427;SDS011;60419;48.880;18.036;2024-03-23T08:28:30;24.40;;;16.42;;
72427;SDS011;60419;48.880;18.036;2024-03-23T08:31:15;23.90;;;15.57;;
72427;SDS011;60419;48.880;18.036;2024-03-23T08:34:01;25.95;;;16.50;;
72427;SDS011;60419;48.880;18.036;2024-03-23T08:36:46;24.08;;;16.20;;
72427;SDS011;60419;48.880;18.036;2024-03-23T08:39:31;23.02;;;15.10;;
72427;SDS011;60419;48.880;18.036;2024-03-23T08:42:17;25.08;;;14.82;;
72427;SDS011;60419;48.880;18.036;2024-03-23T08:45:02;21.23;;;14.18;;
72427;SDS011;60419;48.880;18.036;2024-03-23T08:47:48;22.23;;;14.32;;
72427;SDS011;60419;48.880;18.036;2024-03-23T08:50:33;22.48;;;13.88;;
72427;SDS011;60419;48.880;18.036;2024-03-23T08:53:19;19.95;;;13.48;;
72427;SDS011;60419;48.880;18.036;2024-03-23T08:56:04;20.70;;;13.88;;
72427;SDS011;60419;48.880;18.036;2024-03-23T08:58:51;17.33;;;11.77;;
72427;SDS011;60419;48.880;18.036;2024-03-23T09:01:36;18.58;;;13.07;;
72427;SDS011;60419;48.880;18.036;2024-03-23T09:04:23;21.48;;;12.63;;
72427;SDS011;60419;48.880;18.036;2024-03-23T09:07:08;19.85;;;13.23;;
72427;SDS011;60419;48.880;18.036;2024-03-23T09:09:53;19.48;;;13.02;;
72427;SDS011;60419;48.880;18.036;2024-03-23T09:12:39;20.80;;;14.05;;
72427;SDS011;60419;48.880;18.036;2024-03-23T09:15:24;20.38;;;13.32;;
72427;SDS011;60419;48.880;18.036;2024-03-23T09:18:10;22.02;;;13.63;;
72427;SDS011;60419;48.880;18.036;2024-03-23T09:20:55;20.77;;;13.45;;
72427;SDS011;60419;48.880;18.036;2024-03-23T09:23:45;20.02;;;13.65;;
72427;SDS011;60419;48.880;18.036;2024-03-23T09:26:30;20.92;;;14.43;;
72427;SDS011;60419;48.880;18.036;2024-03-23T09:29:16;23.08;;;13.52;;
72427;SDS011;60419;48.880;18.036;2024-03-23T09:32:01;20.92;;;12.23;;
72427;SDS011;60419;48.880;18.036;2024-03-23T09:34:47;20.83;;;11.48;;
72427;SDS011;60419;48.880;18.036;2024-03-23T09:37:32;24.67;;;11.55;;
72427;SDS011;60419;48.880;18.036;2024-03-23T09:40:17;16.27;;;11.43;;
72427;SDS011;60419;48.880;18.036;2024-03-23T09:43:03;16.05;;;11.85;;
72427;SDS011;60419;48.880;18.036;2024-03-23T09:45:52;22.63;;;13.85;;
72427;SDS011;60419;48.880;18.036;2024-03-23T09:48:37;17.77;;;13.23;;
72427;SDS011;60419;48.880;18.036;2024-03-23T09:51:23;17.90;;;12.23;;
72427;SDS011;60419;48.880;18.036;2024-03-23T09:54:08;23.58;;;13.32;;
72427;SDS011;60419;48.880;18.036;2024-03-23T09:56:54;19.23;;;12.68;;
72427;SDS011;60419;48.880;18.036;2024-03-23T09:59:39;18.17;;;12.88;;
72427;SDS011;60419;48.880;18.036;2024-03-23T10:02:24;20.23;;;12.88;;
72427;SDS011;60419;48.880;18.036;2024-03-23T10:05:20;18.17;;;12.60;;
72427;SDS011;60419;48.880;18.036;2024-03-23T10:11:11;19.45;;;12.32;;
72427;SDS011;60419;48.880;18.036;2024-03-23T10:13:58;21.25;;;14.50;;
72427;SDS011;60419;48.880;18.036;2024-03-23T10:16:43;20.70;;;13.75;;
72427;SDS011;60419;48.880;18.036;2024-03-23T10:19:32;22.77;;;14.20;;
72427;SDS011;60419;48.880;18.036;2024-03-23T10:22:21;20.63;;;14.35;;
72427;SDS011;60419;48.880;18.036;2024-03-23T10:25:09;21.13;;;13.05;;
72427;SDS011;60419;48.880;18.036;2024-03-23T10:27:58;18.48;;;12.27;;
72427;SDS011;60419;48.880;18.036;2024-03-23T10:30:45;21.00;;;13.88;;
72427;SDS011;60419;48.880;18.036;2024-03-23T10:33:30;20.92;;;14.20;;
72427;SDS011;60419;48.880;18.036;2024-03-23T10:36:16;21.38;;;14.00;;
72427;SDS011;60419;48.880;18.036;2024-03-23T10:39:02;20.27;;;14.50;;
72427;SDS011;60419;48.880;18.036;2024-03-23T10:41:50;21.73;;;13.10;;
72427;SDS011;60419;48.880;18.036;2024-03-23T10:44:36;21.02;;;14.02;;
72427;SDS011;60419;48.880;18.036;2024-03-23T10:47:21;21.30;;;14.10;;
72427;SDS011;60419;48.880;18.036;2024-03-23T10:50:07;21.77;;;14.52;;
72427;SDS011;60419;48.880;18.036;2024-03-23T10:52:53;22.02;;;14.40;;
72427;SDS011;60419;48.880;18.036;2024-03-23T10:55:38;19.25;;;13.45;;
72427;SDS011;60419;48.880;18.036;2024-03-23T10:58:29;19.77;;;14.25;;
72427;SDS011;60419;48.880;18.036;2024-03-23T11:01:17;18.58;;;13.60;;
72427;SDS011;60419;48.880;18.036;2024-03-23T11:04:03;20.67;;;13.93;;
72427;SDS011;60419;48.880;18.036;2024-03-23T11:06:48;21.88;;;12.85;;
72427;SDS011;60419;48.880;18.036;2024-03-23T11:15:11;17.40;;;11.75;;
72427;SDS011;60419;48.880;18.036;2024-03-23T11:20:56;17.40;;;11.77;;
72427;SDS011;60419;48.880;18.036;2024-03-23T11:23:42;16.10;;;9.60;;
72427;SDS011;60419;48.880;18.036;2024-03-23T11:26:27;13.07;;;9.07;;
72427;SDS011;60419;48.880;18.036;2024-03-23T11:29:14;14.65;;;8.93;;
72427;SDS011;60419;48.880;18.036;2024-03-23T11:32:01;12.23;;;8.60;;
72427;SDS011;60419;48.880;18.036;2024-03-23T11:34:48;11.52;;;7.13;;
72427;SDS011;60419;48.880;18.036;2024-03-23T11:37:33;9.85;;;6.90;;
72427;SDS011;60419;48.880;18.036;2024-03-23T11:40:19;10.18;;;7.00;;
72427;SDS011;60419;48.880;18.036;2024-03-23T11:43:05;11.07;;;7.30;;
72427;SDS011;60419;48.880;18.036;2024-03-23T11:45:56;10.95;;;6.68;;
72427;SDS011;60419;48.880;18.036;2024-03-23T11:48:49;10.77;;;6.72;;
72427;SDS011;60419;48.880;18.036;2024-03-23T11:51:35;9.75;;;6.57;;
72427;SDS011;60419;48.880;18.036;2024-03-23T11:54:21;14.52;;;7.15;;
72427;SDS011;60419;48.880;18.036;2024-03-23T11:57:08;10.00;;;6.68;;
72427;SDS011;60419;48.880;18.036;2024-03-23T11:59:54;11.10;;;6.85;;
72427;SDS011;60419;48.880;18.036;2024-03-23T12:02:39;12.60;;;7.30;;
72427;SDS011;60419;48.880;18.036;2024-03-23T12:05:26;10.98;;;7.85;;
72427;SDS011;60419;48.880;18.036;2024-03-23T12:08:18;12.23;;;9.00;;
72427;SDS011;60419;48.880;18.036;2024-03-23T12:13:50;12.20;;;9.32;;
72427;SDS011;60419;48.880;18.036;2024-03-23T12:16:36;13.75;;;9.55;;
72427;SDS011;60419;48.880;18.036;2024-03-23T12:19:22;12.55;;;9.50;;
72427;SDS011;60419;48.880;18.036;2024-03-23T12:22:10;13.38;;;9.50;;
72427;SDS011;60419;48.880;18.036;2024-03-23T12:24:56;13.02;;;9.60;;
72427;SDS011;60419;48.880;18.036;2024-03-23T12:27:41;13.82;;;9.52;;
72427;SDS011;60419;48.880;18.036;2024-03-23T12:30:27;12.57;;;8.15;;
72427;SDS011;60419;48.880;18.036;2024-03-23T12:33:13;10.55;;;7.90;;
72427;SDS011;60419;48.880;18.036;2024-03-23T12:35:58;11.25;;;7.88;;
72427;SDS011;60419;48.880;18.036;2024-03-23T12:38:43;13.23;;;8.13;;
72427;SDS011;60419;48.880;18.036;2024-03-23T12:41:29;12.73;;;8.20;;
72427;SDS011;60419;48.880;18.036;2024-03-23T12:44:15;13.13;;;8.15;;
72427;SDS011;60419;48.880;18.036;2024-03-23T12:47:00;13.00;;;8.15;;
72427;SDS011;60419;48.880;18.036;2024-03-23T12:49:46;13.82;;;8.25;;
72427;SDS011;60419;48.880;18.036;2024-03-23T12:52:34;10.70;;;7.57;;
72427;SDS011;60419;48.880;18.036;2024-03-23T12:55:20;11.20;;;7.72;;
72427;SDS011;60419;48.880;18.036;2024-03-23T12:58:06;9.60;;;7.15;;
72427;SDS011;60419;48.880;18.036;2024-03-23T13:00:52;10.88;;;6.82;;
72427;SDS011;60419;48.880;18.036;2024-03-23T13:03:37;9.63;;;6.25;;
72427;SDS011;60419;48.880;18.036;2024-03-23T13:06:23;11.73;;;6.80;;
72427;SDS011;60419;48.880;18.036;2024-03-23T13:09:08;9.73;;;6.40;;
72427;SDS011;60419;48.880;18.036;2024-03-23T13:11:54;9.68;;;6.53;;
72427;SDS011;60419;48.880;18.036;2024-03-23T13:14:39;9.68;;;6.28;;
72427;SDS011;60419;48.880;18.036;2024-03-23T13:17:25;8.98;;;6.50;;
72427;SDS011;60419;48.880;18.036;2024-03-23T13:20:12;9.90;;;6.32;;
72427;SDS011;60419;48.880;18.036;2024-03-23T13:22:59;8.38;;;5.43;;
72427;SDS011;60419;48.880;18.036;2024-03-23T13:28:37;10.40;;;6.18;;
72427;SDS011;60419;48.880;18.036;2024-03-23T13:31:23;8.15;;;5.70;;
72427;SDS011;60419;48.880;18.036;2024-03-23T13:34:08;12.25;;;7.03;;
72427;SDS011;60419;48.880;18.036;2024-03-23T13:36:54;10.65;;;7.43;;
72427;SDS011;60419;48.880;18.036;2024-03-23T13:39:39;11.40;;;7.70;;
72427;SDS011;60419;48.880;18.036;2024-03-23T13:42:27;12.30;;;7.75;;
72427;SDS011;60419;48.880;18.036;2024-03-23T13:45:12;11.68;;;8.30;;
72427;SDS011;60419;48.880;18.036;2024-03-23T13:47:57;11.95;;;8.77;;
72427;SDS011;60419;48.880;18.036;2024-03-23T13:50:43;12.07;;;9.35;;
72427;SDS011;60419;48.880;18.036;2024-03-23T13:53:28;13.85;;;9.80;;
72427;SDS011;60419;48.880;18.036;2024-03-23T13:56:14;15.73;;;9.70;;
72427;SDS011;60419;48.880;18.036;2024-03-23T13:58:59;16.10;;;6.07;;
72427;SDS011;60419;48.880;18.036;2024-03-23T14:01:45;11.05;;;2.22;;
72427;SDS011;60419;48.880;18.036;2024-03-23T14:04:33;3.72;;;1.38;;
72427;SDS011;60419;48.880;18.036;2024-03-23T14:07:18;4.70;;;1.60;;
72427;SDS011;60419;48.880;18.036;2024-03-23T14:10:04;4.10;;;1.40;;
72427;SDS011;60419;48.880;18.036;2024-03-23T14:12:55;3.10;;;1.00;;
72427;SDS011;60419;48.880;18.036;2024-03-23T14:15:41;3.28;;;1.10;;
72427;SDS011;60419;48.880;18.036;2024-03-23T14:18:27;2.90;;;1.20;;
72427;SDS011;60419;48.880;18.036;2024-03-23T14:21:13;3.13;;;1.05;;
72427;SDS011;60419;48.880;18.036;2024-03-23T14:23:58;3.65;;;1.30;;
72427;SDS011;60419;48.880;18.036;2024-03-23T14:26:45;2.28;;;0.95;;
72427;SDS011;60419;48.880;18.036;2024-03-23T14:29:31;4.85;;;1.10;;
72427;SDS011;60419;48.880;18.036;2024-03-23T14:32:16;4.38;;;1.20;;
72427;SDS011;60419;48.880;18.036;2024-03-23T14:35:02;3.03;;;1.10;;
72427;SDS011;60419;48.880;18.036;2024-03-23T14:37:52;1.87;;;1.10;;
72427;SDS011;60419;48.880;18.036;2024-03-23T14:40:38;3.58;;;1.67;;
72427;SDS011;60419;48.880;18.036;2024-03-23T14:43:23;1.95;;;1.10;;
72427;SDS011;60419;48.880;18.036;2024-03-23T14:46:12;4.22;;;1.10;;
72427;SDS011;60419;48.880;18.036;2024-03-23T14:48:59;2.70;;;1.00;;
72427;SDS011;60419;48.880;18.036;2024-03-23T14:51:45;4.57;;;1.20;;
72427;SDS011;60419;48.880;18.036;2024-03-23T14:54:31;1.67;;;1.00;;
72427;SDS011;60419;48.880;18.036;2024-03-23T14:57:17;3.35;;;1.15;;
72427;SDS011;60419;48.880;18.036;2024-03-23T15:00:05;3.72;;;1.30;;
72427;SDS011;60419;48.880;18.036;2024-03-23T15:02:52;4.55;;;1.65;;
72427;SDS011;60419;48.880;18.036;2024-03-23T15:05:38;2.65;;;1.63;;
72427;SDS011;60419;48.880;18.036;2024-03-23T15:08:23;3.00;;;1.50;;
72427;SDS011;60419;48.880;18.036;2024-03-23T15:11:09;3.30;;;1.58;;
72427;SDS011;60419;48.880;18.036;2024-03-23T15:13:54;3.22;;;1.60;;
72427;SDS011;60419;48.880;18.036;2024-03-23T15:16:40;2.95;;;1.10;;
72427;SDS011;60419;48.880;18.036;2024-03-23T15:19:27;4.80;;;1.90;;
72427;SDS011;60419;48.880;18.036;2024-03-23T15:22:12;1.45;;;1.00;;
72427;SDS011;60419;48.880;18.036;2024-03-23T15:24:57;2.47;;;1.23;;
72427;SDS011;60419;48.880;18.036;2024-03-23T15:27:43;2.65;;;1.35;;
72427;SDS011;60419;48.880;18.036;2024-03-23T15:30:28;5.72;;;1.73;;
72427;SDS011;60419;48.880;18.036;2024-03-23T15:33:14;2.60;;;1.30;;
72427;SDS011;60419;48.880;18.036;2024-03-23T15:36:00;1.42;;;1.00;;
72427;SDS011;60419;48.880;18.036;2024-03-23T15:38:48;2.25;;;1.00;;
72427;SDS011;60419;48.880;18.036;2024-03-23T15:41:34;4.43;;;1.15;;
72427;SDS011;60419;48.880;18.036;2024-03-23T15:44:20;4.07;;;1.27;;
72427;SDS011;60419;48.880;18.036;2024-03-23T15:47:06;3.38;;;1.35;;
72427;SDS011;60419;48.880;18.036;2024-03-23T15:49:51;3.00;;;1.45;;
72427;SDS011;60419;48.880;18.036;2024-03-23T15:52:38;2.65;;;1.20;;
72427;SDS011;60419;48.880;18.036;2024-03-23T15:55:24;4.32;;;1.63;;
72427;SDS011;60419;48.880;18.036;2024-03-23T15:58:09;4.55;;;2.00;;
72427;SDS011;60419;48.880;18.036;2024-03-23T16:00:58;4.50;;;1.70;;
72427;SDS011;60419;48.880;18.036;2024-03-23T16:03:51;2.10;;;1.23;;
72427;SDS011;60419;48.880;18.036;2024-03-23T16:06:37;1.48;;;0.93;;
72427;SDS011;60419;48.880;18.036;2024-03-23T16:09:22;2.88;;;1.08;;
72427;SDS011;60419;48.880;18.036;2024-03-23T16:12:08;3.72;;;1.63;;
72427;SDS011;60419;48.880;18.036;2024-03-23T16:14:53;3.17;;;1.70;;
72427;SDS011;60419;48.880;18.036;2024-03-23T16:17:39;2.60;;;1.23;;
72427;SDS011;60419;48.880;18.036;2024-03-23T16:20:25;4.05;;;1.50;;
72427;SDS011;60419;48.880;18.036;2024-03-23T16:23:11;4.65;;;1.80;;
72427;SDS011;60419;48.880;18.036;2024-03-23T16:25:57;4.35;;;1.50;;
72427;SDS011;60419;48.880;18.036;2024-03-23T16:28:42;3.33;;;1.60;;
72427;SDS011;60419;48.880;18.036;2024-03-23T16:31:27;4.75;;;1.33;;
72427;SDS011;60419;48.880;18.036;2024-03-23T16:34:13;1.67;;;0.90;;
72427;SDS011;60419;48.880;18.036;2024-03-23T16:36:58;1.85;;;1.10;;
72427;SDS011;60419;48.880;18.036;2024-03-23T16:39:44;2.47;;;1.60;;
72427;SDS011;60419;48.880;18.036;2024-03-23T16:42:29;2.65;;;1.27;;
72427;SDS011;60419;48.880;18.036;2024-03-23T16:45:15;2.55;;;1.50;;
72427;SDS011;60419;48.880;18.036;2024-03-23T16:48:00;2.80;;;1.70;;
72427;SDS011;60419;48.880;18.036;2024-03-23T16:50:47;2.00;;;1.20;;
72427;SDS011;60419;48.880;18.036;2024-03-23T16:53:33;3.40;;;1.58;;
72427;SDS011;60419;48.880;18.036;2024-03-23T16:56:19;3.13;;;1.48;;
72427;SDS011;60419;48.880;18.036;2024-03-23T16:59:04;3.65;;;1.85;;
72427;SDS011;60419;48.880;18.036;2024-03-23T17:01:49;3.58;;;1.50;;
72427;SDS011;60419;48.880;18.036;2024-03-23T17:04:35;1.55;;;0.93;;
72427;SDS011;60419;48.880;18.036;2024-03-23T17:07:21;1.40;;;0.85;;
72427;SDS011;60419;48.880;18.036;2024-03-23T17:10:06;2.35;;;0.90;;
72427;SDS011;60419;48.880;18.036;2024-03-23T17:12:52;2.15;;;1.10;;